Time;durP1;ratioP1;P1;durP2;ratioP2;P2;SDS_P1;SDS_P2;PMS_P1;PMS_P2;Temp;Humidity;BMP_temperature;BMP_pressure;BME280_temperature;BME280_humidity;BME280_pressure;Samples;Min_cycle;Max_cycle;Signal;HPM_P1;HPM_P2
2023/05/12 00:01:48;;;;;;;24.65;16.90;;;;;;;10.69;100.00;99134.31;5062426;28;20453;-62
2023/05/12 00:04:16;;;;;;;27.88;18.08;;;;;;;10.66;100.00;99129.44;5065981;28;20040;-62
2023/05/12 00:06:43;;;;;;;28.50;18.30;;;;;;;10.72;100.00;99128.47;5053801;28;20080;-63
2023/05/12 00:09:10;;;;;;;28.40;18.15;;;;;;;10.68;100.00;99125.44;5058115;28;20075;-63
2023/05/12 00:11:37;;;;;;;27.73;17.92;;;;;;;10.68;100.00;99119.28;5060081;28;20071;-63
2023/05/12 00:14:04;;;;;;;26.27;17.40;;;;;;;10.56;100.00;99120.22;5061363;28;20383;-62
2023/05/12 00:16:31;;;;;;;28.35;17.98;;;;;;;10.54;100.00;99119.63;5055105;28;20045;-62
2023/05/12 00:18:58;;;;;;;27.08;18.10;;;;;;;10.59;100.00;99116.22;5065964;28;20452;-64
2023/05/12 00:21:27;;;;;;;27.20;17.58;;;;;;;10.57;100.00;99108.41;5062930;28;20048;-62
2023/05/12 00:23:54;;;;;;;26.90;18.33;;;;;;;10.50;100.00;99112.31;5062287;28;20048;-62
2023/05/12 00:26:21;;;;;;;25.40;16.88;;;;;;;10.53;100.00;99118.03;5057964;28;20501;-62
2023/05/12 00:28:48;;;;;;;26.30;16.40;;;;;;;10.53;100.00;99107.31;5062147;28;20053;-62
2023/05/12 00:31:15;;;;;;;30.17;18.83;;;;;;;10.54;100.00;99108.91;5058923;28;20102;-62
2023/05/12 00:33:42;;;;;;;25.90;17.00;;;;;;;10.50;100.00;99102.41;5067332;28;20071;-62
2023/05/12 00:36:09;;;;;;;26.20;16.50;;;;;;;10.51;100.00;99104.06;5056933;28;20045;-61
2023/05/12 00:38:38;;;;;;;25.10;16.45;;;;;;;10.51;100.00;99095.22;5057459;28;20554;-62
2023/05/12 00:41:05;;;;;;;25.48;17.50;;;;;;;10.46;100.00;99097.78;5057248;28;20047;-62
2023/05/12 00:43:32;;;;;;;25.08;16.40;;;;;;;10.50;100.00;99096.25;5075242;28;20063;-62
2023/05/12 00:45:59;;;;;;;24.15;15.82;;;;;;;10.42;100.00;99094.78;5066010;28;20406;-62
2023/05/12 00:48:27;;;;;;;30.30;17.23;;;;;;;10.44;100.00;99095.38;5063576;28;20051;-62
2023/05/12 00:50:54;;;;;;;26.75;16.27;;;;;;;10.44;100.00;99095.38;5057629;28;20044;-62
2023/05/12 00:53:21;;;;;;;26.38;16.80;;;;;;;10.46;100.00;99090.56;5061556;28;20040;-62
2023/05/12 00:55:50;;;;;;;25.45;17.15;;;;;;;10.48;100.00;99090.31;5057419;28;20049;-62
2023/05/12 00:58:18;;;;;;;26.03;15.93;;;;;;;10.52;100.00;99088.78;5064544;28;20037;-62
2023/05/12 01:00:45;;;;;;;23.25;14.77;;;;;;;10.44;100.00;99089.19;5058155;28;20114;-62
2023/05/12 01:03:12;;;;;;;22.15;15.10;;;;;;;10.36;100.00;99085.06;5058618;28;20758;-62
2023/05/12 01:05:42;;;;;;;21.08;14.98;;;;;;;10.55;100.00;99086.41;5062253;28;20079;-62
2023/05/12 01:08:10;;;;;;;24.30;16.13;;;;;;;10.53;100.00;99088.53;5054329;28;20133;-62
2023/05/12 01:10:37;;;;;;;24.08;15.80;;;;;;;10.57;100.00;99081.63;5054120;28;20051;-62
2023/05/12 01:13:06;;;;;;;24.75;15.73;;;;;;;10.61;100.00;99083.78;5061871;28;20047;-62
2023/05/12 01:15:34;;;;;;;22.20;15.75;;;;;;;10.55;100.00;99078.38;5059421;28;20056;-62
2023/05/12 01:18:02;;;;;;;25.63;16.23;;;;;;;10.60;100.00;99074.16;5054594;28;20032;-62
2023/05/12 01:20:29;;;;;;;23.27;15.95;;;;;;;10.57;100.00;99075.44;5056820;28;20054;-62
2023/05/12 01:22:56;;;;;;;26.95;17.63;;;;;;;10.50;100.00;99075.63;5064337;28;20075;-62
2023/05/12 01:25:26;;;;;;;23.97;16.30;;;;;;;10.60;100.00;99074.94;5056312;28;20044;-62
2023/05/12 01:27:55;;;;;;;29.60;17.98;;;;;;;10.63;100.00;99079.00;5055854;28;20143;-62
2023/05/12 01:30:22;;;;;;;27.73;17.00;;;;;;;10.61;100.00;99075.75;5054933;28;20175;-62
2023/05/12 01:32:49;;;;;;;27.48;17.80;;;;;;;10.54;100.00;99074.06;5065141;28;20040;-62
2023/05/12 01:35:17;;;;;;;27.05;17.20;;;;;;;10.49;100.00;99073.19;5065849;28;20129;-62
2023/05/12 01:37:50;;;;;;;28.58;17.73;;;;;;;10.50;100.00;99074.81;5055308;28;20127;-62
2023/05/12 01:40:17;;;;;;;25.35;16.98;;;;;;;10.57;100.00;99068.22;5050819;28;20124;-62
2023/05/12 01:42:45;;;;;;;30.50;18.40;;;;;;;10.60;100.00;99068.78;5059820;28;20123;-62
2023/05/12 01:45:14;;;;;;;32.35;17.90;;;;;;;10.58;100.00;99075.22;5059311;28;20475;-62
2023/05/12 01:47:41;;;;;;;31.83;18.10;;;;;;;10.72;100.00;99077.53;5056686;28;20099;-62
2023/05/12 01:50:10;;;;;;;28.50;17.85;;;;;;;10.69;100.00;99075.34;5058244;28;20044;-62
2023/05/12 01:52:37;;;;;;;27.00;16.80;;;;;;;10.73;100.00;99068.44;5055251;28;20366;-61
2023/05/12 01:55:09;;;;;;;25.73;17.20;;;;;;;10.79;100.00;99073.63;5054824;28;20071;-62
2023/05/12 01:57:43;;;;;;;25.77;17.88;;;;;;;10.77;100.00;99074.94;5065587;28;20085;-61
2023/05/12 02:00:12;;;;;;;27.73;16.75;;;;;;;10.45;100.00;99070.19;5055184;28;20052;-62
2023/05/12 02:02:43;;;;;;;26.05;17.05;;;;;;;10.62;100.00;99066.69;5056091;28;20060;-62
2023/05/12 02:05:12;;;;;;;27.67;17.10;;;;;;;10.66;100.00;99071.31;5059334;28;20040;-62
2023/05/12 02:07:41;;;;;;;23.67;15.82;;;;;;;10.71;100.00;99065.22;5061508;28;20055;-62
2023/05/12 02:10:10;;;;;;;26.23;16.50;;;;;;;10.73;100.00;99063.91;5050660;28;20045;-62
2023/05/12 02:12:37;;;;;;;26.55;16.35;;;;;;;10.71;100.00;99071.38;5060109;28;20136;-62
2023/05/12 02:15:06;;;;;;;28.52;16.40;;;;;;;10.80;100.00;99069.06;5056352;28;20410;-62
2023/05/12 02:17:36;;;;;;;23.80;15.57;;;;;;;10.83;100.00;99068.56;5058397;28;20058;-61
2023/05/12 02:20:08;;;;;;;27.80;15.73;;;;;;;10.83;100.00;99073.94;5065672;28;20544;-62
2023/05/12 02:22:35;;;;;;;23.70;14.95;;;;;;;10.91;100.00;99064.66;5051334;28;20127;-62
2023/05/12 02:25:02;;;;;;;24.17;15.93;;;;;;;10.80;100.00;99066.38;5061985;28;20490;-62
2023/05/12 02:27:31;;;;;;;22.58;15.13;;;;;;;10.82;100.00;99061.59;5054519;28;20048;-62
2023/05/12 02:29:58;;;;;;;24.85;14.93;;;;;;;10.87;100.00;99068.91;5051867;28;20450;-62
2023/05/12 02:32:27;;;;;;;25.65;15.60;;;;;;;10.76;100.00;99062.59;5054952;28;20479;-62
2023/05/12 02:34:55;;;;;;;26.88;16.52;;;;;;;10.82;100.00;99066.94;5054823;28;20145;-62
2023/05/12 02:37:24;;;;;;;25.60;15.63;;;;;;;10.62;100.00;99066.69;5056489;28;20123;-62
2023/05/12 02:39:51;;;;;;;27.00;16.48;;;;;;;10.57;100.00;99067.41;5063250;28;20125;-62
2023/05/12 02:42:19;;;;;;;24.33;15.90;;;;;;;10.63;100.00;99062.94;5053306;28;20103;-62
2023/05/12 02:44:46;;;;;;;26.35;15.77;;;;;;;10.57;100.00;99068.22;5054354;28;20063;-62
2023/05/12 02:47:13;;;;;;;26.38;16.45;;;;;;;10.57;100.00;99065.53;5062299;28;20044;-62
2023/05/12 02:49:40;;;;;;;24.10;15.25;;;;;;;10.61;100.00;99067.72;5058887;28;20088;-62
2023/05/12 02:52:07;;;;;;;28.13;16.77;;;;;;;10.44;100.00;99070.44;5058283;28;20103;-62
2023/05/12 02:54:36;;;;;;;31.33;15.75;;;;;;;10.61;100.00;99065.88;5064064;28;20044;-62
2023/05/12 02:57:05;;;;;;;30.88;15.77;;;;;;;10.61;100.00;99070.41;5058018;28;20048;-62
2023/05/12 02:59:32;;;;;;;28.70;16.60;;;;;;;10.49;100.00;99073.19;5060219;28;20107;-62
2023/05/12 03:01:59;;;;;;;26.13;16.52;;;;;;;10.49;100.00;99068.66;5067668;28;20131;-62
2023/05/12 03:04:26;;;;;;;25.83;16.38;;;;;;;10.45;100.00;99069.38;5063501;28;20064;-62
2023/05/12 03:06:53;;;;;;;27.30;16.58;;;;;;;10.42;100.00;99062.63;5061370;28;20135;-63
2023/05/12 03:09:22;;;;;;;28.10;16.77;;;;;;;10.54;100.00;99058.00;5063034;28;20071;-61
2023/05/12 03:11:51;;;;;;;29.15;17.25;;;;;;;10.55;100.00;99067.66;5065596;28;20059;-62
2023/05/12 03:14:18;;;;;;;25.52;15.77;;;;;;;10.57;100.00;99068.22;5063831;28;20471;-62
2023/05/12 03:16:45;;;;;;;27.02;16.42;;;;;;;10.60;100.00;99069.59;5063782;28;20049;-62
2023/05/12 03:19:12;;;;;;;23.88;14.40;;;;;;;10.68;100.00;99066.47;5058038;28;20044;-62
2023/05/12 03:21:39;;;;;;;24.63;15.15;;;;;;;10.65;100.00;99068.84;5059955;28;20045;-62
2023/05/12 03:24:07;;;;;;;22.10;13.82;;;;;;;10.65;100.00;99066.19;5061186;28;20078;-62
2023/05/12 03:26:34;;;;;;;21.13;13.18;;;;;;;10.55;100.00;99061.47;5056771;28;20382;-63
2023/05/12 03:29:03;;;;;;;19.80;13.00;;;;;;;10.55;100.00;99067.66;5062175;28;20371;-62
2023/05/12 03:31:30;;;;;;;20.00;12.48;;;;;;;10.53;100.00;99059.06;5059552;28;20536;-62
2023/05/12 03:33:57;;;;;;;23.65;13.10;;;;;;;10.63;100.00;99062.94;5064181;28;20059;-62
2023/05/12 03:36:27;;;;;;;20.35;12.20;;;;;;;10.56;100.00;99058.56;5062139;28;20044;-62
2023/05/12 03:38:54;;;;;;;18.92;11.20;;;;;;;10.69;100.00;99061.97;5055496;28;20047;-62
2023/05/12 03:41:21;;;;;;;17.58;10.77;;;;;;;10.56;100.00;99055.88;5059314;28;20060;-62
2023/05/12 03:43:49;;;;;;;17.60;11.40;;;;;;;10.58;100.00;99060.97;5059898;28;20171;-62
2023/05/12 03:46:17;;;;;;;15.73;10.45;;;;;;;10.62;100.00;99056.75;5070074;28;20472;-62
2023/05/12 03:48:44;;;;;;;12.27;8.52;;;;;;;10.56;100.00;99055.88;5062344;28;20074;-62
2023/05/12 03:51:11;;;;;;;11.23;7.60;;;;;;;10.58;100.00;99055.63;5054841;28;20045;-62
2023/05/12 03:53:41;;;;;;;11.40;7.75;;;;;;;10.63;100.00;99060.25;5063392;28;20048;-62
2023/05/12 03:56:08;;;;;;;13.73;8.10;;;;;;;10.65;100.00;99047.41;5063337;28;20044;-62
2023/05/12 03:58:35;;;;;;;11.43;7.25;;;;;;;10.71;100.00;99049.13;5071297;28;20040;-61
2023/05/12 04:01:03;;;;;;;10.00;7.00;;;;;;;10.61;100.00;99057.00;5062164;28;20068;-61
2023/05/12 04:03:32;;;;;;;12.32;6.88;;;;;;;10.63;100.00;99054.88;5059946;28;20471;-61
2023/05/12 04:05:59;;;;;;;11.65;7.18;;;;;;;10.57;100.00;99046.78;5063503;28;20498;-63
2023/05/12 04:08:26;;;;;;;10.25;6.88;;;;;;;10.65;100.00;99053.59;5067693;28;20131;-63
2023/05/12 04:10:54;;;;;;;10.23;7.20;;;;;;;10.67;100.00;99050.66;5057533;28;20048;-60
2023/05/12 04:13:21;;;;;;;12.40;7.43;;;;;;;10.72;100.00;99040.00;5057571;28;20564;-60
2023/05/12 04:15:49;;;;;;;11.13;7.07;;;;;;;10.70;100.00;99050.97;5059027;28;20068;-63
2023/05/12 04:18:16;;;;;;;10.50;6.93;;;;;;;10.82;100.00;99056.22;5058266;28;20040;-61
2023/05/12 04:20:45;;;;;;;11.27;7.05;;;;;;;10.66;100.00;99057.06;5066386;28;20455;-61
2023/05/12 04:23:13;;;;;;;10.02;7.35;;;;;;;10.72;100.00;99066.81;5081447;28;20135;-61
2023/05/12 04:25:41;;;;;;;10.75;7.32;;;;;;;10.72;100.00;99066.81;5056925;28;20075;-61
2023/05/12 04:28:08;;;;;;;10.88;7.68;;;;;;;10.73;100.00;99057.72;5054595;28;20372;-61
2023/05/12 04:30:37;;;;;;;11.82;7.53;;;;;;;10.73;100.00;99063.91;5058149;28;20124;-63
2023/05/12 04:33:04;;;;;;;12.70;7.68;;;;;;;10.73;100.00;99068.44;5051795;28;20192;-63
2023/05/12 04:35:31;;;;;;;10.98;8.30;;;;;;;10.75;100.00;99069.00;5058796;28;20069;-62
2023/05/12 04:38:00;;;;;;;12.93;8.15;;;;;;;10.76;100.00;99073.31;5059385;28;20110;-62
2023/05/12 04:40:27;;;;;;;12.45;8.65;;;;;;;10.80;100.00;99066.38;5060680;28;20098;-63
2023/05/12 04:42:54;;;;;;;13.85;8.43;;;;;;;10.86;100.00;99065.41;5061832;28;20036;-63
2023/05/12 04:45:21;;;;;;;16.10;9.00;;;;;;;10.88;100.00;99071.31;5065834;28;20045;-60
2023/05/12 04:47:48;;;;;;;13.70;8.68;;;;;;;10.87;100.00;99077.75;5059607;28;20820;-63
2023/05/12 04:50:15;;;;;;;13.98;8.98;;;;;;;10.72;100.00;99077.53;5063524;28;20132;-62
2023/05/12 04:52:42;;;;;;;14.23;9.13;;;;;;;10.70;100.00;99075.09;5062614;28;20380;-62
2023/05/12 04:55:11;;;;;;;13.10;8.60;;;;;;;10.69;100.00;99084.22;5058799;28;20080;-62
2023/05/12 04:57:40;;;;;;;13.85;9.20;;;;;;;10.78;100.00;99087.25;5061023;28;20053;-62
2023/05/12 05:00:10;;;;;;;14.10;8.63;;;;;;;10.67;100.00;99093.56;5053466;28;20048;-62
2023/05/12 05:02:37;;;;;;;12.52;8.52;;;;;;;10.67;100.00;99094.34;5053115;28;20045;-63
2023/05/12 05:05:05;;;;;;;15.65;9.45;;;;;;;10.70;100.00;99095.72;5062378;28;20072;-62
2023/05/12 05:07:32;;;;;;;16.33;9.57;;;;;;;10.82;100.00;99098.31;5057092;28;20079;-62
2023/05/12 05:10:00;;;;;;;17.33;9.05;;;;;;;10.74;100.00;99099.56;5058914;28;20119;-62
2023/05/12 05:12:28;;;;;;;21.75;9.40;;;;;;;10.78;100.00;99096.13;5058398;28;20328;-63
2023/05/12 05:14:55;;;;;;;12.48;8.45;;;;;;;10.70;100.00;99107.25;5073736;28;20046;-62
2023/05/12 05:17:23;;;;;;;15.38;8.32;;;;;;;10.69;100.00;99104.84;5055646;28;20051;-62
2023/05/12 05:19:49;;;;;;;15.18;8.55;;;;;;;10.69;100.00;99104.84;5049644;28;20055;-62
2023/05/12 05:22:17;;;;;;;12.18;7.10;;;;;;;10.72;100.00;99104.34;5052386;28;20109;-62
2023/05/12 05:24:44;;;;;;;16.77;8.65;;;;;;;10.70;100.00;99111.81;5065142;28;20041;-62
2023/05/12 05:27:12;;;;;;;13.05;8.07;;;;;;;10.64;100.00;99108.25;5060360;28;20040;-62
2023/05/12 05:29:41;;;;;;;13.60;8.13;;;;;;;10.60;100.00;99117.03;5061464;28;20049;-62
2023/05/12 05:32:08;;;;;;;16.55;8.70;;;;;;;10.61;100.00;99113.28;5055861;28;20052;-61
2023/05/12 05:34:35;;;;;;;14.82;9.20;;;;;;;10.61;100.00;99110.59;5060032;28;20126;-62
2023/05/12 05:37:02;;;;;;;14.40;8.70;;;;;;;10.55;100.00;99115.88;5058452;28;20044;-62
2023/05/12 05:39:30;;;;;;;20.60;9.63;;;;;;;10.60;100.00;99111.66;5064130;28;20409;-62
2023/05/12 05:41:57;;;;;;;16.13;9.55;;;;;;;10.60;100.00;99115.16;5057424;28;20185;-62
2023/05/12 05:44:24;;;;;;;11.93;8.55;;;;;;;10.55;100.00;99115.88;5048798;28;20037;-62
2023/05/12 05:46:54;;;;;;;14.55;9.30;;;;;;;10.56;100.00;99125.56;5044371;28;20045;-62
2023/05/12 05:49:22;;;;;;;16.17;10.15;;;;;;;10.57;100.00;99121.81;5063183;28;20059;-61
2023/05/12 05:51:50;;;;;;;15.85;10.10;;;;;;;10.61;100.00;99118.63;5053724;28;20185;-62
2023/05/12 05:54:17;;;;;;;18.20;11.07;;;;;;;10.59;100.00;99121.59;5061131;28;20047;-62
2023/05/12 05:56:45;;;;;;;20.77;9.60;;;;;;;10.54;100.00;99130.34;5059158;28;20049;-62
2023/05/12 05:59:13;;;;;;;14.60;9.40;;;;;;;10.56;100.00;99132.81;5056001;28;20121;-62
2023/05/12 06:01:40;;;;;;;14.88;8.40;;;;;;;10.49;100.00;99138.31;5088971;28;20041;-62
2023/05/12 06:04:08;;;;;;;11.50;6.95;;;;;;;10.52;100.00;99140.50;5079527;28;20043;-62
2023/05/12 06:06:36;;;;;;;9.80;7.00;;;;;;;10.54;100.00;99151.00;5058812;28;20049;-62
2023/05/12 06:09:03;;;;;;;12.00;7.43;;;;;;;10.49;100.00;99154.38;5059810;28;20048;-61
2023/05/12 06:11:31;;;;;;;7.05;4.50;;;;;;;10.45;100.00;99161.28;5054318;28;20048;-62
2023/05/12 06:13:59;;;;;;;6.95;3.80;;;;;;;10.39;100.00;99164.13;5052417;28;20047;-62
2023/05/12 06:16:27;;;;;;;4.82;3.17;;;;;;;10.39;100.00;99169.50;5055388;28;20037;-62
2023/05/12 06:18:54;;;;;;;4.53;2.70;;;;;;;10.38;100.00;99174.03;5057920;28;20044;-62
2023/05/12 06:21:23;;;;;;;4.38;2.72;;;;;;;10.56;100.00;99183.72;5057672;28;20040;-62
2023/05/12 06:23:50;;;;;;;3.58;2.50;;;;;;;10.53;100.00;99187.69;5063657;28;20045;-63
2023/05/12 06:26:17;;;;;;;5.03;2.20;;;;;;;10.55;100.00;99190.91;5047657;28;20114;-62
2023/05/12 06:28:44;;;;;;;5.30;2.30;;;;;;;10.58;100.00;99195.81;5057904;28;20128;-62
2023/05/12 06:31:11;;;;;;;2.95;2.08;;;;;;;10.70;100.00;99193.03;5074474;28;20047;-63
2023/05/12 06:33:38;;;;;;;3.13;2.17;;;;;;;10.79;100.00;99196.13;5058191;28;20083;-62
2023/05/12 06:36:07;;;;;;;3.75;2.08;;;;;;;11.07;100.00;99191.72;5059069;28;20475;-62
2023/05/12 06:38:35;;;;;;;5.13;2.45;;;;;;;11.53;100.00;99198.53;5060110;28;20048;-62
2023/05/12 06:41:03;;;;;;;3.58;2.20;;;;;;;11.95;100.00;99194.47;5059411;28;20040;-62
2023/05/12 06:43:30;;;;;;;2.25;1.80;;;;;;;13.48;100.00;99198.41;5060830;28;20471;-62
2023/05/12 06:45:57;;;;;;;1.85;1.48;;;;;;;13.97;100.00;99206.09;5063591;28;20514;-63
2023/05/12 06:48:24;;;;;;;4.32;1.55;;;;;;;12.07;100.00;99205.88;5057285;28;20049;-62
2023/05/12 06:50:51;;;;;;;3.05;1.70;;;;;;;11.81;100.00;99212.81;5061603;28;20155;-62
2023/05/12 06:53:18;;;;;;;2.63;1.70;;;;;;;12.25;100.00;99215.47;5055751;28;20438;-63
2023/05/12 06:55:46;;;;;;;4.78;1.95;;;;;;;12.07;100.00;99216.63;5071124;28;20049;-62
2023/05/12 06:58:13;;;;;;;1.92;1.60;;;;;;;12.28;100.00;99213.09;5061582;28;20036;-62
2023/05/12 07:00:40;;;;;;;4.78;1.77;;;;;;;12.24;100.00;99217.34;5054801;28;20127;-62
2023/05/12 07:03:08;;;;;;;2.45;1.60;;;;;;;12.26;100.00;99219.78;5054097;28;20040;-63
2023/05/12 07:05:35;;;;;;;3.25;1.58;;;;;;;12.37;100.00;99226.88;5061828;28;20052;-62
2023/05/12 07:08:03;;;;;;;3.92;1.63;;;;;;;12.26;100.00;99225.97;5057475;28;20509;-62
2023/05/12 07:10:30;;;;;;;3.30;1.83;;;;;;;12.15;100.00;99229.59;5056150;28;20087;-63
2023/05/12 07:12:59;;;;;;;2.22;1.65;;;;;;;12.01;100.00;99229.19;5058581;28;20127;-62
2023/05/12 07:15:26;;;;;;;2.95;1.70;;;;;;;11.98;100.00;99232.38;5059046;28;20040;-62
2023/05/12 07:17:54;;;;;;;1.92;1.50;;;;;;;12.02;100.00;99232.69;5057619;28;20048;-63
2023/05/12 07:20:21;;;;;;;3.05;2.00;;;;;;;12.21;100.00;99220.53;5060998;28;20451;-62
2023/05/12 07:22:48;;;;;;;9.82;2.83;;;;;;;11.87;100.00;99233.31;5058751;28;20076;-62
2023/05/12 07:25:15;;;;;;;5.45;3.20;;;;;;;11.70;100.00;99227.97;5063718;28;20418;-62
2023/05/12 07:27:43;;;;;;;7.30;3.30;;;;;;;12.00;100.00;99238.28;5060312;28;20044;-62
2023/05/12 07:30:12;;;;;;;4.55;3.10;;;;;;;12.17;100.00;99235.53;5065050;28;20072;-62
2023/05/12 07:32:39;;;;;;;5.05;3.42;;;;;;;12.32;100.00;99234.88;5064649;28;20269;-63
2023/05/12 07:35:06;;;;;;;4.65;3.55;;;;;;;12.53;100.00;99235.91;5062849;28;20115;-62
2023/05/12 07:37:33;;;;;;;5.30;3.88;;;;;;;12.71;100.00;99238.22;5061084;28;20049;-62
2023/05/12 07:40:00;;;;;;;5.25;3.70;;;;;;;12.72;100.00;99239.81;5062827;28;20395;-62
2023/05/12 07:42:27;;;;;;;6.47;3.47;;;;;;;12.50;100.00;99241.78;5066150;28;20044;-62
2023/05/12 07:44:54;;;;;;;7.70;3.85;;;;;;;12.88;100.00;99245.31;5060436;28;20043;-62
2023/05/12 07:47:22;;;;;;;7.53;3.80;;;;;;;12.89;100.00;99245.06;5065339;28;20049;-62
2023/05/12 07:49:49;;;;;;;6.03;3.78;;;;;;;12.79;100.00;99242.31;5060551;28;20063;-62
2023/05/12 07:52:17;;;;;;;8.23;4.20;;;;;;;12.45;100.00;99249.78;5059568;28;20506;-62
2023/05/12 07:54:44;;;;;;;7.13;4.30;;;;;;;12.76;100.00;99244.72;5065266;28;20143;-62
2023/05/12 07:57:11;;;;;;;4.93;3.70;;;;;;;13.07;100.00;99246.53;5058600;28;20045;-63
2023/05/12 07:59:39;;;;;;;6.15;3.88;;;;;;;13.10;100.00;99246.06;5062839;28;20397;-62
2023/05/12 08:02:06;;;;;;;8.27;4.10;;;;;;;12.82;100.00;99254.44;5055303;28;20114;-62
2023/05/12 08:04:34;;;;;;;5.40;4.05;;;;;;;12.95;100.00;99246.75;5056500;28;20495;-62
2023/05/12 08:07:01;;;;;;;5.18;3.70;;;;;;;12.79;100.00;99245.00;5057858;28;20592;-62
2023/05/12 08:09:28;;;;;;;9.73;4.20;;;;;;;12.95;100.00;99251.28;5059101;28;20053;-62
2023/05/12 08:11:55;;;;;;;5.75;3.95;;;;;;;12.96;100.00;99255.63;5060339;28;20050;-62
2023/05/12 08:14:24;;;;;;;6.85;3.80;;;;;;;12.75;100.00;99251.94;5061787;28;20051;-63
2023/05/12 08:16:51;;;;;;;5.45;4.10;;;;;;;12.86;100.00;99258.25;5061278;28;20044;-62
2023/05/12 08:19:18;;;;;;;5.45;3.47;;;;;;;12.88;100.00;99256.06;5062606;28;20367;-63
2023/05/12 08:21:47;;;;;;;5.95;4.10;;;;;;;13.02;100.00;99262.66;5062020;28;20052;-63
2023/05/12 08:24:14;;;;;;;6.63;4.15;;;;;;;12.91;100.00;99263.66;5061125;28;20372;-62
2023/05/12 08:26:41;;;;;;;5.13;3.88;;;;;;;13.41;100.00;99270.50;5055382;28;20041;-62
2023/05/12 08:29:08;;;;;;;8.18;4.00;;;;;;;13.98;100.00;99266.22;5056914;28;20094;-63
2023/05/12 08:31:36;;;;;;;9.20;4.20;;;;;;;13.48;100.00;99263.00;5065426;28;20187;-62
2023/05/12 08:34:03;;;;;;;4.85;3.70;;;;;;;13.89;100.00;99263.19;5065432;28;20543;-62
2023/05/12 08:36:31;;;;;;;6.72;4.60;;;;;;;13.66;100.00;99269.03;5059909;28;20128;-62
2023/05/12 08:39:00;;;;;;;6.97;3.97;;;;;;;13.56;100.00;99284.06;5057754;28;20040;-62
2023/05/12 08:41:33;;;;;;;5.60;3.85;;;;;;;13.72;97.81;99278.75;5059936;28;20049;-62
2023/05/12 08:44:00;;;;;;;4.90;3.42;;;;;;;13.53;97.67;99271.13;5063463;28;20188;-62
2023/05/12 08:46:27;;;;;;;6.03;3.72;;;;;;;13.42;100.00;99282.88;5062540;28;20106;-62
2023/05/12 08:48:54;;;;;;;6.70;4.22;;;;;;;13.55;99.46;99281.59;5061244;28;20515;-63
2023/05/12 08:51:21;;;;;;;5.00;3.90;;;;;;;14.07;93.01;99285.38;5059302;28;20093;-63
2023/05/12 08:53:48;;;;;;;6.47;3.90;;;;;;;14.24;92.05;99288.66;5056759;28;20051;-63
2023/05/12 08:56:18;;;;;;;4.65;3.30;;;;;;;14.19;91.32;99294.03;5058083;28;20447;-62
2023/05/12 08:58:46;;;;;;;7.30;3.53;;;;;;;14.52;90.88;99291.97;5060682;28;20037;-63
2023/05/12 09:01:13;;;;;;;7.57;3.40;;;;;;;14.59;91.32;99290.66;5064527;28;20051;-62
2023/05/12 09:03:40;;;;;;;5.60;3.80;;;;;;;14.09;94.66;99291.31;5059485;28;20037;-62
2023/05/12 09:06:07;;;;;;;4.82;3.60;;;;;;;14.29;93.81;99291.38;5064520;28;20055;-62
2023/05/12 09:08:35;;;;;;;4.72;3.78;;;;;;;14.25;93.97;99295.66;5060381;28;20152;-62
2023/05/12 09:11:02;;;;;;;8.32;4.18;;;;;;;13.76;94.55;99286.03;5064005;28;20132;-62
2023/05/12 09:13:36;;;;;;;5.53;3.80;;;;;;;13.52;98.27;99291.00;5055215;28;20427;-63
2023/05/12 09:16:03;;;;;;;5.80;3.20;;;;;;;13.46;95.65;99289.38;5058196;28;20487;-62
2023/05/12 09:18:33;;;;;;;6.40;3.92;;;;;;;13.48;100.00;99294.47;5055852;28;20484;-62
2023/05/12 09:21:00;;;;;;;5.10;3.28;;;;;;;13.46;99.03;99305.53;5056316;28;20045;-63
2023/05/12 09:23:27;;;;;;;7.30;4.10;;;;;;;13.66;97.28;99293.28;5058271;28;20526;-62
2023/05/12 09:26:01;;;;;;;6.07;4.10;;;;;;;14.04;95.64;99297.47;5056275;28;20039;-62
2023/05/12 09:28:36;;;;;;;5.10;3.90;;;;;;;14.43;94.39;99294.38;5062974;28;20048;-62
2023/05/12 09:31:14;;;;;;;6.03;3.88;;;;;;;14.98;89.14;99302.88;5059106;28;20062;-62
2023/05/12 09:33:41;;;;;;;9.55;4.40;;;;;;;15.00;87.78;99290.72;5064399;28;20044;-62
2023/05/12 09:36:08;;;;;;;6.03;4.38;;;;;;;15.10;87.29;99292.56;5063740;28;20036;-62
2023/05/12 09:38:35;;;;;;;6.75;4.13;;;;;;;15.28;87.69;99288.53;5056017;28;20508;-63
2023/05/12 09:41:02;;;;;;;6.43;3.92;;;;;;;14.97;88.87;99295.81;5060037;28;20470;-62
2023/05/12 09:43:29;;;;;;;10.40;4.63;;;;;;;15.01;86.55;99296.91;5056522;28;20060;-63
2023/05/12 09:45:58;;;;;;;5.47;4.07;;;;;;;15.31;86.15;99299.59;5055211;28;20474;-63
2023/05/12 09:48:25;;;;;;;6.40;4.00;;;;;;;15.08;87.09;99292.06;5061587;28;20108;-63
2023/05/12 09:50:52;;;;;;;8.13;4.18;;;;;;;14.92;86.92;99295.81;5057642;28;20051;-63
2023/05/12 09:53:21;;;;;;;6.32;4.65;;;;;;;14.43;87.53;99300.59;5061290;28;20135;-63
2023/05/12 09:55:48;;;;;;;5.90;4.70;;;;;;;14.66;89.43;99299.31;5060036;28;20076;-62
2023/05/12 09:58:16;;;;;;;6.07;4.25;;;;;;;14.52;87.49;99313.53;5055910;28;20064;-62
2023/05/12 10:00:44;;;;;;;5.40;4.10;;;;;;;14.59;86.02;99304.16;5063816;28;20139;-62
2023/05/12 10:03:13;;;;;;;8.18;4.60;;;;;;;14.46;86.77;99310.84;5054374;28;20110;-62
2023/05/12 10:05:45;;;;;;;7.55;4.50;;;;;;;14.96;84.91;99307.72;5062413;28;20056;-62
2023/05/12 10:08:14;;;;;;;8.38;4.47;;;;;;;15.03;82.59;99305.56;5053501;28;20068;-62
2023/05/12 10:10:41;;;;;;;7.13;4.07;;;;;;;15.13;83.42;99307.44;5058584;28;20088;-62
2023/05/12 10:13:12;;;;;;;6.63;4.30;;;;;;;15.31;79.63;99291.50;5056669;28;20072;-62
2023/05/12 10:15:40;;;;;;;6.50;4.55;;;;;;;16.08;79.76;99298.63;5058816;28;20579;-62
2023/05/12 10:18:07;;;;;;;6.57;4.15;;;;;;;15.87;83.79;99289.78;5059263;28;20048;-62
2023/05/12 10:20:36;;;;;;;7.95;4.20;;;;;;;15.81;80.17;99285.47;5057336;28;20090;-63
2023/05/12 10:23:03;;;;;;;8.65;3.85;;;;;;;16.47;78.07;99293.28;5056861;28;20062;-62
2023/05/12 10:25:30;;;;;;;6.03;4.07;;;;;;;15.91;79.64;99290.84;5056829;28;20049;-62
2023/05/12 10:27:59;;;;;;;7.35;3.60;;;;;;;16.08;78.65;99299.44;5059868;28;20052;-62
2023/05/12 10:30:26;;;;;;;7.35;3.72;;;;;;;15.62;78.54;99299.53;5059086;28;20580;-62
2023/05/12 10:32:55;;;;;;;7.45;4.00;;;;;;;15.45;79.90;99301.72;5061530;28;20047;-63
2023/05/12 10:35:31;;;;;;;6.63;3.88;;;;;;;15.40;78.45;99296.34;5062904;28;20121;-62
2023/05/12 10:38:03;;;;;;;5.13;3.83;;;;;;;15.26;79.77;99291.50;5062552;28;20057;-62
2023/05/12 10:40:30;;;;;;;6.80;3.80;;;;;;;15.88;77.71;99291.41;5064541;28;20098;-62
2023/05/12 10:42:58;;;;;;;5.43;3.70;;;;;;;16.16;76.43;99289.94;5071458;28;20064;-62
2023/05/12 10:45:25;;;;;;;6.85;3.88;;;;;;;16.17;75.33;99292.38;5059961;28;20142;-62
2023/05/12 10:47:52;;;;;;;5.82;3.80;;;;;;;16.27;74.77;99287.97;5059987;28;20364;-62
2023/05/12 10:50:26;;;;;;;6.82;3.85;;;;;;;15.77;75.98;99284.41;5054481;28;20340;-62
2023/05/12 10:52:55;;;;;;;7.80;3.50;;;;;;;16.19;73.55;99286.66;5058261;28;20132;-61
2023/05/12 10:55:35;;;;;;;8.18;3.70;;;;;;;16.51;73.43;99283.53;5060133;28;20165;-61
2023/05/12 10:58:07;;;;;;;5.75;3.35;;;;;;;16.07;73.47;99286.97;5053238;28;20044;-61
2023/05/12 11:00:43;;;;;;;6.70;3.67;;;;;;;16.84;72.37;99280.34;5063467;28;20036;-63
2023/05/12 11:03:12;;;;;;;5.47;3.60;;;;;;;17.09;69.68;99276.63;5061596;28;20055;-62
2023/05/12 11:05:39;;;;;;;7.10;3.60;;;;;;;16.73;71.64;99285.00;5064321;28;20060;-63
2023/05/12 11:08:06;;;;;;;6.13;3.00;;;;;;;16.54;70.13;99285.66;5059320;28;20067;-63
2023/05/12 11:10:35;;;;;;;5.85;2.90;;;;;;;16.47;68.26;99297.88;5060467;28;20041;-61
2023/05/12 11:13:02;;;;;;;6.68;3.50;;;;;;;15.99;70.04;99287.56;5063854;28;20045;-63
2023/05/12 11:15:30;;;;;;;6.80;3.65;;;;;;;16.57;72.26;99282.41;5061273;28;20132;-62
2023/05/12 11:17:57;;;;;;;5.68;3.45;;;;;;;15.97;71.59;99295.13;5062688;28;20047;-62
2023/05/12 11:20:24;;;;;;;5.30;3.10;;;;;;;15.88;72.62;99288.72;5058823;28;20483;-63
2023/05/12 11:22:52;;;;;;;7.63;3.67;;;;;;;15.37;74.56;99297.69;5059376;28;20072;-62